createdAt,value
2023-02-27T00:01:43.327Z,98798.19
2023-02-27T00:04:11.358Z,98795.96
2023-02-27T00:06:39.798Z,98797.02
2023-02-27T00:09:08.560Z,98800.13
2023-02-27T00:11:38.630Z,98806.33
2023-02-27T00:14:06.695Z,98805.48
2023-02-27T00:16:34.929Z,98809.44
2023-02-27T00:19:04.904Z,98808.90
2023-02-27T00:21:34.737Z,98815.10
2023-02-27T00:24:04.875Z,98816.98
2023-02-27T00:26:53.275Z,98823.84
2023-02-27T00:29:21.371Z,98822.27
2023-02-27T00:31:52.838Z,98816.04
2023-02-27T00:34:21.004Z,98819.83
2023-02-27T00:36:49.623Z,98817.73
2023-02-27T00:39:17.737Z,98817.90
2023-02-27T00:41:46.004Z,98815.30
2023-02-27T00:44:14.240Z,98815.11
2023-02-27T00:46:58.940Z,98813.20
2023-02-27T00:49:27.198Z,98816.33
2023-02-27T00:51:55.181Z,98814.24
2023-02-27T00:54:25.248Z,98816.66
2023-02-27T00:56:53.705Z,98815.61
2023-02-27T00:59:21.926Z,98810.24
2023-02-27T01:01:49.953Z,98810.05
2023-02-27T01:04:17.927Z,98809.33
2023-02-27T01:06:46.029Z,98808.63
2023-02-27T01:09:15.127Z,98814.80
2023-02-27T01:11:43.084Z,98815.09
2023-02-27T01:14:11.345Z,98815.94
2023-02-27T01:16:39.347Z,98806.77
2023-02-27T01:19:08.069Z,98813.63
2023-02-27T01:21:36.422Z,98808.76
2023-02-27T01:24:04.778Z,98813.20
2023-02-27T01:26:32.769Z,98818.89
2023-02-27T01:29:02.598Z,98816.63
2023-02-27T01:31:30.603Z,98819.05
2023-02-27T01:33:58.640Z,98816.48
2023-02-27T01:36:26.692Z,98815.48
2023-02-27T01:38:55.266Z,98818.92
2023-02-27T01:41:43.251Z,98822.36
2023-02-27T01:44:13.866Z,98829.26
2023-02-27T01:46:42.472Z,98831.15
2023-02-27T01:49:21.993Z,98832.50
2023-02-27T01:52:03.323Z,98836.79
2023-02-27T01:54:35.846Z,98841.25
2023-02-27T01:57:06.938Z,98839.70
2023-02-27T01:59:41.736Z,98841.25
2023-02-27T02:02:23.789Z,98841.24
2023-02-27T02:04:54.121Z,98845.41
2023-02-27T02:07:22.334Z,98844.38
2023-02-27T02:09:54.812Z,98846.65
2023-02-27T02:12:26.971Z,98848.73
2023-02-27T02:14:54.832Z,98854.59
2023-02-27T02:17:44.282Z,98856.32
2023-02-27T02:20:40.382Z,98859.08
2023-02-27T02:23:23.478Z,98863.20
2023-02-27T02:26:24.827Z,98868.71
2023-02-27T02:28:56.678Z,98872.72
2023-02-27T02:31:53.877Z,98874.13
2023-02-27T02:34:38.630Z,98874.98
2023-02-27T02:37:31.113Z,98878.94
2023-02-27T02:40:29.421Z,98877.57
2023-02-27T02:43:15.944Z,98880.48
2023-02-27T02:45:56.674Z,98883.29
2023-02-27T02:48:29.423Z,98886.75
2023-02-27T02:51:09.363Z,98892.27
2023-02-27T02:53:47.949Z,98895.21
2023-02-27T02:56:28.081Z,98895.05
2023-02-27T02:59:08.338Z,98901.33
2023-02-27T03:02:02.992Z,98904.63
2023-02-27T03:04:49.852Z,98899.96
2023-02-27T03:07:30.468Z,98896.36
2023-02-27T03:10:17.106Z,98894.64
2023-02-27T03:13:01.328Z,98894.13
2023-02-27T03:15:35.724Z,98892.91
2023-02-27T03:18:17.734Z,98890.46
2023-02-27T03:20:54.597Z,98892.19
2023-02-27T03:23:26.729Z,98896.51
2023-02-27T03:25:58.173Z,98898.05
2023-02-27T03:28:32.298Z,98895.98
2023-02-27T03:31:33.230Z,98893.26
2023-02-27T03:34:17.956Z,98892.95
2023-02-27T03:37:00.705Z,98889.00
2023-02-27T03:39:40.539Z,98887.80
2023-02-27T03:42:47.235Z,98886.26
2023-02-27T03:45:35.617Z,98895.94
2023-02-27T03:48:06.939Z,98902.49
2023-02-27T03:50:41.461Z,98902.66
2023-02-27T03:53:19.285Z,98903.02
2023-02-27T03:55:49.655Z,98896.34
2023-02-27T03:58:17.840Z,98905.64
2023-02-27T04:00:56.905Z,98908.08
2023-02-27T04:03:25.880Z,98906.89
2023-02-27T04:05:54.240Z,98910.69
2023-02-27T04:08:25.570Z,98908.61
2023-02-27T04:11:26.612Z,98918.98
2023-02-27T04:14:13.500Z,98920.52
2023-02-27T04:17:11.221Z,98925.88
2023-02-27T04:19:50.040Z,98923.95
2023-02-27T04:22:41.987Z,98928.59
2023-02-27T04:25:31.326Z,98933.27
2023-02-27T04:28:05.484Z,98938.44
2023-02-27T04:30:55.602Z,98942.94
2023-02-27T04:33:37.275Z,98936.05
2023-02-27T04:36:12.954Z,98941.91
2023-02-27T04:39:14.585Z,98942.59
2023-02-27T04:42:02.888Z,98945.34
2023-02-27T04:44:35.076Z,98952.60
2023-02-27T04:47:07.178Z,98955.03
2023-02-27T04:49:41.796Z,98956.06
2023-02-27T04:52:41.067Z,98954.50
2023-02-27T04:55:20.402Z,98954.67
2023-02-27T04:57:53.734Z,98957.24
2023-02-27T05:00:24.985Z,98956.20
2023-02-27T05:03:17.196Z,98959.82
2023-02-27T05:05:48.066Z,98959.14
2023-02-27T05:08:24.432Z,98964.13
2023-02-27T05:10:58.221Z,98960.66
2023-02-27T05:13:52.484Z,98961.88
2023-02-27T05:16:24.175Z,98965.85
2023-02-27T05:18:52.323Z,98967.40
2023-02-27T05:21:33.797Z,98970.34
2023-02-27T05:24:15.611Z,98971.02
2023-02-27T05:27:11.635Z,98971.01
2023-02-27T05:29:48.759Z,98977.38
2023-02-27T05:32:57.610Z,98980.15
2023-02-27T05:35:29.919Z,98988.27
2023-02-27T05:38:04.097Z,98988.48
2023-02-27T05:40:40.971Z,98989.86
2023-02-27T05:43:12.441Z,98992.45
2023-02-27T05:45:44.429Z,98996.42
2023-02-27T05:48:19.573Z,98995.02
2023-02-27T05:50:51.712Z,98996.41
2023-02-27T05:53:25.285Z,99004.00
2023-02-27T05:55:59.511Z,99004.71
2023-02-27T05:58:36.675Z,99007.65
2023-02-27T06:01:07.912Z,99012.64
2023-02-27T06:03:37.809Z,99018.52
2023-02-27T06:06:09.355Z,99017.66
2023-02-27T06:08:37.521Z,99017.65
2023-02-27T06:11:06.146Z,99019.54
2023-02-27T06:13:34.185Z,98998.86
2023-02-27T06:16:02.474Z,99021.96
2023-02-27T06:18:30.520Z,99020.73
2023-02-27T06:20:58.693Z,99020.92
2023-02-27T06:23:26.809Z,99027.30
2023-02-27T06:25:55.012Z,99027.97
2023-02-27T06:28:23.060Z,99024.53
2023-02-27T06:30:55.292Z,99023.52
2023-02-27T06:33:26.024Z,99022.48
2023-02-27T06:35:54.487Z,99026.11
2023-02-27T06:38:22.816Z,99028.70
2023-02-27T06:40:51.673Z,99035.44
2023-02-27T06:43:20.091Z,99035.77
2023-02-27T06:45:48.303Z,99033.02
2023-02-27T06:48:16.308Z,99038.00
2023-02-27T06:50:44.378Z,99038.85
2023-02-27T06:53:12.500Z,99044.19
2023-02-27T06:55:42.170Z,99040.55
2023-02-27T06:58:11.020Z,99038.81
2023-02-27T07:00:39.306Z,99039.48
2023-02-27T07:03:07.903Z,99038.41
2023-02-27T07:05:36.119Z,99041.14
2023-02-27T07:08:04.678Z,99050.41
2023-02-27T07:10:33.160Z,99056.63
2023-02-27T07:13:01.742Z,99062.80
2023-02-27T07:15:30.106Z,99064.36
2023-02-27T07:17:58.135Z,99061.73
2023-02-27T07:20:26.160Z,99061.20
2023-02-27T07:22:54.182Z,99062.42
2023-02-27T07:25:22.245Z,99061.73
2023-02-27T07:27:51.027Z,99063.86
2023-02-27T07:30:19.680Z,99065.06
2023-02-27T07:32:47.947Z,99064.66
2023-02-27T07:35:16.004Z,99063.92
2023-02-27T07:37:44.231Z,99067.52
2023-02-27T07:40:12.659Z,99063.84
2023-02-27T07:42:41.082Z,99068.97
2023-02-27T07:45:09.988Z,99064.43
2023-02-27T07:47:38.193Z,99067.20
2023-02-27T07:50:06.707Z,99068.59
2023-02-27T07:52:34.789Z,99074.79
2023-02-27T07:55:02.954Z,99077.33
2023-02-27T07:57:31.004Z,99077.80
2023-02-27T07:59:59.085Z,99080.35
2023-02-27T08:02:27.090Z,99081.36
2023-02-27T08:04:55.243Z,99088.77
2023-02-27T08:07:23.728Z,99090.09
2023-02-27T08:09:51.834Z,99087.44
2023-02-27T08:12:20.008Z,99087.91
2023-02-27T08:14:48.340Z,99089.46
2023-02-27T08:17:36.595Z,99096.59
2023-02-27T08:20:05.683Z,99093.42
2023-02-27T08:22:33.795Z,99099.75
2023-02-27T08:25:01.942Z,99100.36
2023-02-27T08:27:30.962Z,99107.39
2023-02-27T08:29:59.175Z,99110.91
2023-02-27T08:32:27.589Z,99113.27
2023-02-27T08:34:56.453Z,99114.73
2023-02-27T08:37:24.756Z,99119.45
2023-02-27T08:39:52.910Z,99122.44
2023-02-27T08:42:20.869Z,99125.35
2023-02-27T08:44:50.694Z,99127.42
2023-02-27T08:47:19.236Z,99131.95
2023-02-27T08:49:47.311Z,99137.21
2023-02-27T08:52:15.420Z,99140.91
2023-02-27T08:54:43.596Z,99145.11
2023-02-27T08:57:12.115Z,99142.83
2023-02-27T08:59:40.326Z,99144.52
2023-02-27T09:02:10.461Z,99140.71
2023-02-27T09:04:38.672Z,99143.64
2023-02-27T09:07:06.710Z,99136.85
2023-02-27T09:09:34.787Z,99143.80
2023-02-27T09:12:02.870Z,99151.67
2023-02-27T09:14:31.177Z,99153.06
2023-02-27T09:16:59.275Z,99155.89
2023-02-27T09:19:27.464Z,99158.05
2023-02-27T09:21:55.514Z,99157.45
2023-02-27T09:24:23.673Z,99162.54
2023-02-27T09:26:53.121Z,99163.22
2023-02-27T09:29:23.914Z,99157.83
2023-02-27T09:31:52.207Z,99161.10
2023-02-27T09:34:21.142Z,99163.00
2023-02-27T09:36:49.254Z,99155.53
2023-02-27T09:39:18.384Z,99157.72
2023-02-27T09:42:11.687Z,99154.85
2023-02-27T09:44:47.080Z,99154.17
2023-02-27T09:47:21.276Z,99153.62
2023-02-27T09:50:19.094Z,99154.95
2023-02-27T09:52:47.394Z,99157.06
2023-02-27T09:55:21.849Z,99157.46
2023-02-27T09:57:57.024Z,99158.64
2023-02-27T10:00:40.728Z,99159.02
2023-02-27T10:03:43.424Z,99156.98
2023-02-27T10:06:26.739Z,99155.27
2023-02-27T10:08:54.950Z,99157.19
2023-02-27T10:11:38.916Z,99160.70
2023-02-27T10:14:26.173Z,99160.63
2023-02-27T10:16:56.876Z,99158.63
2023-02-27T10:19:33.349Z,99157.53
2023-02-27T10:22:06.028Z,99162.96
2023-02-27T10:25:31.665Z,99153.73
2023-02-27T10:28:47.006Z,99170.98
2023-02-27T10:31:22.134Z,99169.42
2023-02-27T10:34:50.594Z,99173.25
2023-02-27T10:43:19.542Z,99174.99
2023-02-27T10:50:23.133Z,99171.40
2023-02-27T10:53:54.870Z,99172.57
2023-02-27T10:57:02.528Z,99169.55
2023-02-27T10:59:35.697Z,99154.20
2023-02-27T11:10:16.825Z,99172.13
2023-02-27T11:17:30.035Z,99170.00
2023-02-27T11:21:03.415Z,99158.26
2023-02-27T11:24:13.927Z,99172.68
2023-02-27T11:27:47.731Z,99171.76
2023-02-27T11:30:27.147Z,99171.14
2023-02-27T11:34:08.391Z,99172.29
2023-02-27T11:36:40.903Z,99175.82
2023-02-27T11:39:20.938Z,99171.40
2023-02-27T11:41:49.235Z,99175.82
2023-02-27T11:44:24.000Z,99173.70
2023-02-27T11:47:13.403Z,99174.13
2023-02-27T11:50:01.339Z,99179.10
2023-02-27T11:52:58.716Z,99179.09
2023-02-27T11:55:29.286Z,99179.52
2023-02-27T11:58:18.064Z,99176.63
2023-02-27T12:00:54.644Z,99174.77
2023-02-27T12:03:25.586Z,99173.97
2023-02-27T12:06:01.844Z,99174.66
2023-02-27T12:08:54.504Z,99179.52
2023-02-27T12:11:29.457Z,99177.43
2023-02-27T12:14:23.626Z,99178.97
2023-02-27T12:16:58.014Z,99179.10
2023-02-27T12:19:42.690Z,99179.38
2023-02-27T12:22:25.085Z,99186.91
2023-02-27T12:25:04.232Z,99189.58
2023-02-27T12:27:44.285Z,99190.89
2023-02-27T12:30:20.012Z,99189.42
2023-02-27T12:33:09.710Z,99188.14
2023-02-27T12:35:39.602Z,99193.16
2023-02-27T12:38:12.624Z,99194.24
2023-02-27T12:40:52.341Z,99199.56
2023-02-27T12:43:44.953Z,99202.27
2023-02-27T12:46:38.620Z,99198.18
2023-02-27T12:49:28.684Z,99194.44
2023-02-27T12:52:11.845Z,99202.73
2023-02-27T12:54:53.613Z,99203.55
2023-02-27T12:57:48.822Z,99201.67
2023-02-27T13:00:20.778Z,99199.10
2023-02-27T13:02:54.982Z,99197.52
2023-02-27T13:06:02.073Z,99201.07
2023-02-27T13:08:43.481Z,99209.65
2023-02-27T13:11:30.473Z,99209.59
2023-02-27T13:14:07.784Z,99206.10
2023-02-27T13:16:43.195Z,99206.96
2023-02-27T13:19:29.311Z,99206.23
2023-02-27T13:22:12.167Z,99210.17
2023-02-27T13:24:53.036Z,99211.92
2023-02-27T13:27:25.287Z,99214.52
2023-02-27T13:30:15.737Z,99214.13
2023-02-27T13:32:58.429Z,99213.25
2023-02-27T13:35:52.282Z,99203.90
2023-02-27T13:38:42.946Z,99210.54
2023-02-27T13:41:23.210Z,99212.10
2023-02-27T13:43:56.123Z,99214.82
2023-02-27T13:46:37.865Z,99214.36
2023-02-27T13:49:06.113Z,99205.64
2023-02-27T13:51:43.052Z,99216.26
2023-02-27T13:54:14.156Z,99217.75
2023-02-27T13:56:54.848Z,99222.88
2023-02-27T13:59:42.297Z,99222.05
2023-02-27T14:02:18.425Z,99218.26
2023-02-27T14:04:54.311Z,99223.17
2023-02-27T14:07:26.996Z,99223.21
2023-02-27T14:10:11.385Z,99228.25
2023-02-27T14:12:46.708Z,99226.11
2023-02-27T14:15:17.999Z,99226.00
2023-02-27T14:17:47.311Z,99227.58
2023-02-27T14:20:35.325Z,99228.08
2023-02-27T14:23:22.065Z,99233.38
2023-02-27T14:26:13.160Z,99235.63
2023-02-27T14:28:54.548Z,99239.27
2023-02-27T14:31:28.662Z,99240.32
2023-02-27T14:34:01.005Z,99242.42
2023-02-27T14:36:33.367Z,99245.91
2023-02-27T14:39:03.267Z,99248.53
2023-02-27T14:41:51.834Z,99245.84
2023-02-27T14:44:25.680Z,99250.10
2023-02-27T14:46:56.102Z,99252.09
2023-02-27T14:49:36.184Z,99258.22
2023-02-27T14:52:26.057Z,99259.84
2023-02-27T14:55:20.254Z,99264.70
2023-02-27T14:58:08.564Z,99267.15
2023-02-27T15:01:03.396Z,99270.63
2023-02-27T15:03:39.482Z,99274.95
2023-02-27T15:06:24.894Z,99276.88
2023-02-27T15:08:57.188Z,99275.55
2023-02-27T15:11:25.826Z,99279.05
2023-02-27T15:14:02.366Z,99281.84
2023-02-27T15:16:34.357Z,99285.29
2023-02-27T15:19:13.417Z,99288.02
2023-02-27T15:21:50.162Z,99289.90
2023-02-27T15:24:35.222Z,99290.39
2023-02-27T15:27:11.331Z,99291.23
2023-02-27T15:29:42.584Z,99292.80
2023-02-27T15:32:24.883Z,99295.05
2023-02-27T15:34:57.150Z,99291.59
2023-02-27T15:37:31.811Z,99293.66
2023-02-27T15:40:01.510Z,99295.05
2023-02-27T15:42:33.611Z,99297.80
2023-02-27T15:45:03.269Z,99295.20
2023-02-27T15:47:32.923Z,99301.95
2023-02-27T15:50:29.008Z,99304.04
2023-02-27T15:53:12.474Z,99306.31
2023-02-27T15:55:51.308Z,99304.25
2023-02-27T15:59:00.255Z,99307.20
2023-02-27T16:01:32.637Z,99310.00
2023-02-27T16:04:14.075Z,99316.77
2023-02-27T16:06:50.152Z,99320.59
2023-02-27T16:09:47.499Z,99321.98
2023-02-27T16:12:31.582Z,99323.90
2023-02-27T16:15:20.719Z,99330.30
2023-02-27T16:18:01.523Z,99333.79
2023-02-27T16:20:29.681Z,99335.70
2023-02-27T16:23:02.815Z,99336.75
2023-02-27T16:25:31.096Z,99337.98
2023-02-27T16:27:59.275Z,99343.17
2023-02-27T16:30:35.998Z,99343.85
2023-02-27T16:33:04.133Z,99349.40
2023-02-27T16:35:34.005Z,99346.13
2023-02-27T16:38:06.774Z,99347.50
2023-02-27T16:40:52.726Z,99350.11
2023-02-27T16:43:20.840Z,99349.76
2023-02-27T16:45:52.234Z,99354.08
2023-02-27T16:48:20.356Z,99357.87
2023-02-27T16:50:48.524Z,99359.60
2023-02-27T16:53:18.021Z,99362.36
2023-02-27T16:55:46.246Z,99362.70
2023-02-27T16:58:15.764Z,99368.92
2023-02-27T17:00:43.918Z,99370.98
2023-02-27T17:03:12.118Z,99375.46
2023-02-27T17:05:41.479Z,99377.86
2023-02-27T17:08:11.162Z,99377.86
2023-02-27T17:11:39.063Z,99379.57
2023-02-27T17:14:07.767Z,99381.09
2023-02-27T17:16:35.804Z,99383.48
2023-02-27T17:19:04.267Z,99383.48
2023-02-27T17:21:34.522Z,99388.32
2023-02-27T17:24:02.840Z,99388.48
2023-02-27T17:26:31.352Z,99388.14
2023-02-27T17:28:59.565Z,99390.55
2023-02-27T17:31:27.620Z,99389.34
2023-02-27T17:34:00.456Z,99391.75
2023-02-27T17:36:32.506Z,99393.44
2023-02-27T17:39:01.948Z,99395.16
2023-02-27T17:41:32.456Z,99396.36
2023-02-27T17:44:01.996Z,99397.91
2023-02-27T17:46:31.684Z,99402.23
2023-02-27T17:49:00.741Z,99405.34
2023-02-27T17:51:29.623Z,99406.88
2023-02-27T17:54:00.927Z,99410.65
2023-02-27T17:56:29.799Z,99415.15
2023-02-27T17:58:58.526Z,99414.13
2023-02-27T18:02:26.465Z,99411.05
2023-02-27T18:05:16.065Z,99416.92
2023-02-27T18:07:44.306Z,99417.48
2023-02-27T18:10:14.384Z,99420.77
2023-02-27T18:13:42.655Z,99422.19
2023-02-27T18:16:31.732Z,99423.23
2023-02-27T18:19:03.636Z,99431.04
2023-02-27T18:22:11.433Z,99433.80
2023-02-27T18:24:39.695Z,99432.21
2023-02-27T18:27:08.037Z,99442.42
2023-02-27T18:29:36.844Z,99443.96
2023-02-27T18:33:04.698Z,99444.65
2023-02-27T18:35:53.293Z,99450.52
2023-02-27T18:38:21.559Z,99453.45
2023-02-27T18:40:49.829Z,99456.75
2023-02-27T18:44:18.060Z,99462.27
2023-02-27T18:46:46.452Z,99463.11
2023-02-27T18:49:15.911Z,99463.10
2023-02-27T18:52:24.439Z,99465.17
2023-02-27T18:54:52.681Z,99470.17
2023-02-27T18:57:21.019Z,99465.83
2023-02-27T18:59:49.614Z,99465.11
2023-02-27T19:02:19.870Z,99469.91
2023-02-27T19:04:49.296Z,99466.82
2023-02-27T19:07:22.562Z,99473.70
2023-02-27T19:10:00.824Z,99471.80
2023-02-27T19:12:29.096Z,99474.23
2023-02-27T19:14:57.488Z,99474.41
2023-02-27T19:17:25.946Z,99478.41
2023-02-27T19:19:54.219Z,99478.61
2023-02-27T19:22:22.351Z,99485.34
2023-02-27T19:24:50.526Z,99486.22
2023-02-27T19:27:18.716Z,99490.38
2023-02-27T19:29:46.804Z,99491.96
2023-02-27T19:32:14.987Z,99491.98
2023-02-27T19:34:43.209Z,99498.03
2023-02-27T19:37:11.828Z,99492.89
2023-02-27T19:39:40.031Z,99488.40
2023-02-27T19:42:08.246Z,99491.17
2023-02-27T19:44:36.604Z,99490.34
2023-02-27T19:47:04.811Z,99491.06
2023-02-27T19:49:32.944Z,99496.10
2023-02-27T19:52:03.080Z,99494.92
2023-02-27T19:54:31.331Z,99497.53
2023-02-27T19:56:59.385Z,99502.38
2023-02-27T19:59:27.500Z,99508.78
2023-02-27T20:01:55.662Z,99508.61
2023-02-27T20:04:23.672Z,99511.39
2023-02-27T20:06:53.926Z,99512.08
2023-02-27T20:09:23.354Z,99511.75
2023-02-27T20:11:54.094Z,99513.83
2023-02-27T20:14:22.855Z,99506.91
2023-02-27T20:16:53.036Z,99513.99
2023-02-27T20:19:24.250Z,99519.52
2023-02-27T20:21:52.472Z,99517.98
2023-02-27T20:24:22.339Z,99519.02
2023-02-27T20:26:53.548Z,99518.85
2023-02-27T20:29:24.003Z,99521.43
2023-02-27T20:31:53.483Z,99517.61
2023-02-27T20:34:25.896Z,99522.61
2023-02-27T20:36:54.661Z,99525.03
2023-02-27T20:39:22.893Z,99523.30
2023-02-27T20:41:50.887Z,99524.33
2023-02-27T20:44:26.878Z,99527.60
2023-02-27T20:46:55.489Z,99528.13
2023-02-27T20:49:23.621Z,99531.27
2023-02-27T20:51:51.554Z,99535.77
2023-02-27T20:54:22.700Z,99539.08
2023-02-27T20:56:54.617Z,99539.42
2023-02-27T20:59:25.236Z,99542.02
2023-02-27T21:01:54.677Z,99536.84
2023-02-27T21:04:42.551Z,99539.61
2023-02-27T21:07:21.710Z,99535.96
2023-02-27T21:09:50.946Z,99538.56
2023-02-27T21:12:19.109Z,99534.74
2023-02-27T21:14:48.722Z,99536.98
2023-02-27T21:17:16.763Z,99534.92
2023-02-27T21:19:45.178Z,99531.61
2023-02-27T21:22:14.354Z,99524.68
2023-02-27T21:24:42.750Z,99530.06
2023-02-27T21:27:10.862Z,99524.86
2023-02-27T21:29:39.045Z,99529.53
2023-02-27T21:32:07.591Z,99532.64
2023-02-27T21:34:36.140Z,99532.29
2023-02-27T21:37:06.354Z,99530.73
2023-02-27T21:39:34.742Z,99533.69
2023-02-27T21:42:02.804Z,99533.35
2023-02-27T21:44:32.077Z,99537.69
2023-02-27T21:47:08.353Z,99541.68
2023-02-27T21:49:37.163Z,99543.77
2023-02-27T21:52:05.794Z,99543.58
2023-02-27T21:54:34.246Z,99544.96
2023-02-27T21:57:03.740Z,99547.38
2023-02-27T21:59:32.369Z,99542.19
2023-02-27T22:02:00.600Z,99543.06
2023-02-27T22:04:28.682Z,99546.89
2023-02-27T22:06:57.116Z,99548.96
2023-02-27T22:09:25.260Z,99548.11
2023-02-27T22:11:53.251Z,99551.39
2023-02-27T22:14:21.479Z,99549.51
2023-02-27T22:16:49.569Z,99548.98
2023-02-27T22:19:22.770Z,99545.88
2023-02-27T22:21:51.352Z,99541.04
2023-02-27T22:24:20.507Z,99538.27
2023-02-27T22:26:50.277Z,99540.50
2023-02-27T22:29:18.293Z,99542.58
2023-02-27T22:31:46.526Z,99544.48
2023-02-27T22:34:18.603Z,99547.59
2023-02-27T22:36:52.987Z,99551.73
2023-02-27T22:39:21.361Z,99550.19
2023-02-27T22:41:49.557Z,99552.59
2023-02-27T22:44:17.759Z,99552.38
2023-02-27T22:46:48.293Z,99552.73
2023-02-27T22:49:22.040Z,99554.64
2023-02-27T22:51:52.059Z,99556.02
2023-02-27T22:54:22.686Z,99557.07
2023-02-27T22:56:53.186Z,99559.84
2023-02-27T22:59:22.067Z,99555.88
2023-02-27T23:01:51.893Z,99556.41
2023-02-27T23:04:22.436Z,99556.94
2023-02-27T23:06:52.845Z,99554.17
2023-02-27T23:09:24.248Z,99559.54
2023-02-27T23:11:52.408Z,99560.40
2023-02-27T23:14:21.750Z,99563.01
2023-02-27T23:16:50.856Z,99562.48
2023-02-27T23:19:21.391Z,99565.60
2023-02-27T23:21:49.520Z,99566.96
2023-02-27T23:24:19.183Z,99566.09
2023-02-27T23:26:49.913Z,99564.20
2023-02-27T23:29:19.374Z,99567.14
2023-02-27T23:31:48.119Z,99565.41
2023-02-27T23:34:16.677Z,99566.78
2023-02-27T23:36:44.881Z,99562.27
2023-02-27T23:39:13.071Z,99559.49
2023-02-27T23:41:41.418Z,99556.71
2023-02-27T23:44:09.376Z,99566.41
2023-02-27T23:46:38.200Z,99564.17
2023-02-27T23:49:07.173Z,99569.70
2023-02-27T23:51:35.574Z,99569.36
2023-02-27T23:54:04.025Z,99568.84
2023-02-27T23:56:32.130Z,99569.52
2023-02-27T23:59:03.681Z,99570.55
